createdAt,value
2023-03-06T00:00:15.978Z,30.026
2023-03-06T00:05:15.993Z,30.025
2023-03-06T00:10:15.871Z,30.025
2023-03-06T00:15:15.873Z,30.024
2023-03-06T00:20:15.904Z,30.026
2023-03-06T00:25:15.895Z,30.024
2023-03-06T00:30:15.949Z,30.023
2023-03-06T00:35:16.019Z,30.022
2023-03-06T00:40:16.044Z,30.026
2023-03-06T00:45:16.012Z,30.025
2023-03-06T00:50:16.030Z,30.027
2023-03-06T00:55:16.067Z,30.026
2023-03-06T01:00:16.035Z,30.025
2023-03-06T01:05:15.989Z,30.023
2023-03-06T01:10:16.177Z,30.023
2023-03-06T01:15:16.210Z,30.023
2023-03-06T01:20:16.215Z,30.021
2023-03-06T01:25:16.087Z,30.022
2023-03-06T01:30:16.060Z,30.021
2023-03-06T01:35:16.138Z,30.021
2023-03-06T01:40:16.171Z,30.018
2023-03-06T01:45:16.137Z,30.018
2023-03-06T01:50:16.120Z,30.021
2023-03-06T01:55:16.056Z,30.022
2023-03-06T02:00:16.196Z,30.017
2023-03-06T02:05:16.190Z,30.019
2023-03-06T02:10:16.183Z,30.020
2023-03-06T02:15:16.339Z,30.018
2023-03-06T02:20:16.285Z,30.017
2023-03-06T02:25:16.189Z,30.017
2023-03-06T02:30:16.237Z,30.016
2023-03-06T02:35:16.510Z,30.018
2023-03-06T02:40:16.462Z,30.018
2023-03-06T02:45:16.430Z,30.018
2023-03-06T02:50:16.434Z,30.016
2023-03-06T02:55:16.238Z,30.013
2023-03-06T03:00:16.273Z,30.008
2023-03-06T03:05:16.327Z,30.005
2023-03-06T03:10:16.420Z,30.003
2023-03-06T03:15:16.316Z,30.001
2023-03-06T03:20:16.342Z,29.998
2023-03-06T03:25:16.390Z,29.995
2023-03-06T03:30:16.522Z,29.994
2023-03-06T03:35:16.513Z,29.994
2023-03-06T03:40:16.379Z,29.996
2023-03-06T03:45:16.353Z,29.993
2023-03-06T03:50:16.348Z,29.993
2023-03-06T03:55:16.316Z,29.993
2023-03-06T04:00:16.456Z,29.992
2023-03-06T04:05:16.481Z,29.990
2023-03-06T04:10:16.543Z,29.988
2023-03-06T04:15:16.416Z,29.990
2023-03-06T04:20:16.537Z,29.983
2023-03-06T04:25:16.677Z,29.985
2023-03-06T04:30:16.435Z,29.985
2023-03-06T04:35:16.639Z,29.982
2023-03-06T04:40:16.616Z,29.979
2023-03-06T04:45:16.539Z,29.975
2023-03-06T04:50:16.521Z,29.977
2023-03-06T04:55:16.531Z,29.973
2023-03-06T05:00:15.600Z,29.976
2023-03-06T05:05:15.625Z,29.977
2023-03-06T05:10:15.793Z,29.974
2023-03-06T05:15:15.557Z,29.980
2023-03-06T05:20:15.624Z,29.980
2023-03-06T05:25:15.541Z,29.978
2023-03-06T05:30:15.578Z,29.978
2023-03-06T05:35:15.686Z,29.975
2023-03-06T05:40:15.710Z,29.975
2023-03-06T05:45:15.702Z,29.976
2023-03-06T05:50:15.682Z,29.975
2023-03-06T05:55:15.686Z,29.977
2023-03-06T06:00:15.683Z,29.975
2023-03-06T06:05:15.814Z,29.977
2023-03-06T06:10:15.692Z,29.975
2023-03-06T06:15:15.748Z,29.977
2023-03-06T06:20:15.703Z,29.972
2023-03-06T06:25:15.871Z,29.966
2023-03-06T06:30:15.714Z,29.971
2023-03-06T06:35:15.760Z,29.968
2023-03-06T06:40:15.816Z,29.964
2023-03-06T06:45:15.822Z,29.962
2023-03-06T06:50:16.824Z,29.966
2023-03-06T06:55:15.739Z,29.965
2023-03-06T07:00:15.867Z,29.964
2023-03-06T07:05:15.737Z,29.962
2023-03-06T07:10:15.862Z,29.958
2023-03-06T07:15:15.830Z,29.953
2023-03-06T07:20:15.847Z,29.957
2023-03-06T07:25:15.900Z,29.965
2023-03-06T07:30:15.891Z,29.965
2023-03-06T07:35:20.072Z,29.966
2023-03-06T07:40:15.929Z,29.966
2023-03-06T07:45:15.949Z,29.965
2023-03-06T07:50:15.968Z,29.967
2023-03-06T07:55:16.110Z,29.969
2023-03-06T08:00:16.079Z,29.966
2023-03-06T08:05:15.957Z,29.964
2023-03-06T08:10:16.024Z,29.959
2023-03-06T08:15:15.961Z,29.959
2023-03-06T08:20:16.104Z,29.957
2023-03-06T08:25:15.962Z,29.961
2023-03-06T08:30:17.662Z,29.969
2023-03-06T08:35:16.045Z,29.968
2023-03-06T08:40:15.998Z,29.973
2023-03-06T08:45:15.998Z,29.978
2023-03-06T08:50:16.024Z,29.978
2023-03-06T08:55:16.062Z,29.984
2023-03-06T09:00:16.229Z,29.983
2023-03-06T09:05:16.219Z,29.981
2023-03-06T09:10:16.139Z,29.985
2023-03-06T09:15:16.059Z,29.989
2023-03-06T09:20:16.111Z,29.992
2023-03-06T09:25:16.128Z,29.994
2023-03-06T09:30:16.167Z,29.994
2023-03-06T09:35:16.171Z,29.993
2023-03-06T09:40:16.437Z,29.991
2023-03-06T09:45:16.207Z,29.985
2023-03-06T09:50:16.305Z,29.986
2023-03-06T09:55:16.368Z,29.985
2023-03-06T10:00:16.241Z,29.982
2023-03-06T10:05:16.293Z,29.984
2023-03-06T10:10:16.236Z,29.985
2023-03-06T10:15:16.227Z,29.984
2023-03-06T10:20:16.316Z,29.984
2023-03-06T10:25:16.253Z,29.981
2023-03-06T10:30:16.397Z,29.979
2023-03-06T10:35:16.345Z,29.980
2023-03-06T10:40:16.324Z,29.977
2023-03-06T10:45:16.434Z,29.978
2023-03-06T10:50:16.376Z,29.977
2023-03-06T10:55:16.400Z,29.977
2023-03-06T11:00:16.449Z,29.977
2023-03-06T11:05:16.323Z,29.977
2023-03-06T11:10:16.503Z,29.975
2023-03-06T11:15:16.383Z,29.970
2023-03-06T11:20:16.429Z,29.971
2023-03-06T11:25:16.420Z,29.975
2023-03-06T11:30:16.421Z,29.977
2023-03-06T11:35:16.464Z,29.972
2023-03-06T11:40:16.481Z,29.976
2023-03-06T11:45:16.465Z,29.974
2023-03-06T11:50:16.536Z,29.975
2023-03-06T11:55:16.511Z,29.977
2023-03-06T12:00:16.740Z,29.982
2023-03-06T12:05:16.662Z,29.989
2023-03-06T12:10:16.546Z,29.985
2023-03-06T12:15:16.478Z,29.988
2023-03-06T12:20:16.608Z,29.992
2023-03-06T12:25:16.550Z,29.988
2023-03-06T12:30:16.496Z,29.989
2023-03-06T12:35:16.730Z,29.986
2023-03-06T12:40:16.581Z,29.988
2023-03-06T12:45:16.605Z,29.986
2023-03-06T12:50:16.530Z,29.984
2023-03-06T12:55:16.957Z,29.982
2023-03-06T13:00:16.749Z,29.981
2023-03-06T13:05:16.660Z,29.974
2023-03-06T13:10:16.698Z,29.971
2023-03-06T13:15:16.873Z,29.963
2023-03-06T13:20:16.804Z,29.957
2023-03-06T13:25:16.656Z,29.956
2023-03-06T13:30:16.781Z,29.956
2023-03-06T13:35:16.663Z,29.954
2023-03-06T13:40:16.823Z,29.952
2023-03-06T13:45:16.712Z,29.950
2023-03-06T13:50:16.723Z,29.951
2023-03-06T13:55:16.642Z,29.949
2023-03-06T14:00:16.797Z,29.951
2023-03-06T14:05:16.711Z,29.948
2023-03-06T14:10:16.732Z,29.949
2023-03-06T14:15:16.883Z,29.951
2023-03-06T14:20:16.735Z,29.948
2023-03-06T14:25:16.860Z,29.945
2023-03-06T14:30:16.830Z,29.943
2023-03-06T14:35:17.099Z,29.943
2023-03-06T14:40:16.928Z,29.940
2023-03-06T14:45:17.017Z,29.940
2023-03-06T14:50:16.830Z,29.939
2023-03-06T14:55:16.886Z,29.938
2023-03-06T15:00:16.899Z,29.935
2023-03-06T15:05:16.876Z,29.933
2023-03-06T15:10:17.016Z,29.927
2023-03-06T15:15:16.892Z,29.928
2023-03-06T15:20:16.955Z,29.929
2023-03-06T15:25:17.055Z,29.924
2023-03-06T15:30:16.853Z,29.926
2023-03-06T15:35:17.143Z,29.923
2023-03-06T15:40:16.974Z,29.920
2023-03-06T15:45:17.117Z,29.924
2023-03-06T15:50:17.007Z,29.920
2023-03-06T15:55:16.868Z,29.924
2023-03-06T16:00:26.870Z,29.918
2023-03-06T16:05:16.960Z,29.915
2023-03-06T16:10:17.309Z,29.914
2023-03-06T16:15:17.139Z,29.911
2023-03-06T16:20:17.103Z,29.911
2023-03-06T16:25:17.243Z,29.910
2023-03-06T16:30:17.194Z,29.911
2023-03-06T16:35:17.036Z,29.907
2023-03-06T16:40:17.124Z,29.905
2023-03-06T16:45:17.080Z,29.893
2023-03-06T16:50:17.121Z,29.897
2023-03-06T16:55:17.362Z,29.894
2023-03-06T17:00:17.225Z,29.891
2023-03-06T17:05:17.131Z,29.890
2023-03-06T17:10:15.406Z,29.888
2023-03-06T17:15:17.393Z,29.884
2023-03-06T17:20:17.184Z,29.873
2023-03-06T17:25:17.224Z,29.874
2023-03-06T17:30:17.143Z,29.868
2023-03-06T17:35:17.232Z,29.865
2023-03-06T17:40:17.371Z,29.860
2023-03-06T17:45:17.218Z,29.857
2023-03-06T17:50:17.171Z,29.852
2023-03-06T17:55:17.236Z,29.852
2023-03-06T18:00:17.298Z,29.854
2023-03-06T18:05:17.398Z,29.854
2023-03-06T18:10:17.365Z,29.850
2023-03-06T18:15:17.324Z,29.846
2023-03-06T18:20:17.330Z,29.843
2023-03-06T18:25:17.303Z,29.841
2023-03-06T18:30:17.290Z,29.840
2023-03-06T18:35:17.569Z,29.836
2023-03-06T18:40:17.315Z,29.829
2023-03-06T18:45:17.601Z,29.827
2023-03-06T18:50:17.729Z,29.827
2023-03-06T18:55:15.405Z,29.827
2023-03-06T19:00:15.437Z,29.823
2023-03-06T19:05:15.384Z,29.823
2023-03-06T19:10:15.419Z,29.822
2023-03-06T19:15:15.561Z,29.824
2023-03-06T19:20:15.485Z,29.821
2023-03-06T19:25:15.451Z,29.821
2023-03-06T19:30:15.522Z,29.817
2023-03-06T19:35:15.442Z,29.813
2023-03-06T19:40:15.489Z,29.815
2023-03-06T19:45:15.473Z,29.811
2023-03-06T19:50:15.776Z,29.809
2023-03-06T19:55:15.532Z,29.812
2023-03-06T20:00:15.726Z,29.803
2023-03-06T20:05:15.595Z,29.802
2023-03-06T20:10:15.583Z,29.800
2023-03-06T20:15:15.506Z,29.802
2023-03-06T20:20:15.611Z,29.802
2023-03-06T20:25:15.581Z,29.801
2023-03-06T20:30:15.549Z,29.800
2023-03-06T20:35:15.634Z,29.799
2023-03-06T20:40:15.665Z,29.794
2023-03-06T20:45:15.699Z,29.788
2023-03-06T20:50:15.714Z,29.785
2023-03-06T20:55:15.612Z,29.787
2023-03-06T21:00:15.694Z,29.787
2023-03-06T21:05:15.660Z,29.782
2023-03-06T21:10:16.269Z,29.784
2023-03-06T21:15:15.734Z,29.785
2023-03-06T21:20:15.631Z,29.790
2023-03-06T21:25:15.816Z,29.787
2023-03-06T21:30:15.698Z,29.783
2023-03-06T21:35:15.740Z,29.780
2023-03-06T21:40:15.776Z,29.775
2023-03-06T21:45:15.708Z,29.774
2023-03-06T21:50:15.704Z,29.772
2023-03-06T21:55:15.713Z,29.773
2023-03-06T22:00:15.780Z,29.774
2023-03-06T22:05:15.832Z,29.777
2023-03-06T22:10:15.811Z,29.783
2023-03-06T22:15:15.843Z,29.781
2023-03-06T22:20:15.971Z,29.775
2023-03-06T22:25:16.004Z,29.770
2023-03-06T22:30:15.929Z,29.763
2023-03-06T22:35:15.901Z,29.764
2023-03-06T22:40:15.846Z,29.766
2023-03-06T22:45:15.874Z,29.776
2023-03-06T22:50:15.912Z,29.781
2023-03-06T22:55:15.980Z,29.780
2023-03-06T23:00:15.939Z,29.784
2023-03-06T23:05:15.972Z,29.780
2023-03-06T23:10:15.996Z,29.781
2023-03-06T23:15:15.936Z,29.782
2023-03-06T23:20:16.007Z,29.788
2023-03-06T23:25:16.163Z,29.784
2023-03-06T23:30:16.061Z,29.784
2023-03-06T23:35:15.986Z,29.788
2023-03-06T23:40:16.221Z,29.790
2023-03-06T23:45:16.089Z,29.794
2023-03-06T23:50:16.091Z,29.796
2023-03-06T23:55:16.094Z,29.796
